Latest Weather Observations for Swan Island

IDT60801

Issued at 5:32 am EST Friday 1 July 2016 (issued every 30 minutes, with the page automatically refreshed every 10 minutes)

About weather observations | Map of weather stations | Latest weather observations for TAS | Other Formats
Station Details ID: 092123 Name: SWAN ISLAND Lat: -40.73 Lon: 148.12 Height: 15.0 m
Data from the previous 72 hours. | See also: Recent months at Swan Island
Date/Time
EST
Temp
°C
App
Temp
°C
Dew
Point
°C
Rel
Hum
%
Delta-T
°C
Wind Press
QNH
hPa
Press
MSL
hPa
Rain since
9am
mm
Dir  Spd
km/h
Gust
km/h
Spd
kts
Gust
kts
01/05:30am 10.4 8.7 8.5 88 0.9 SSW 7 13 4 7 1009.1 1009.2 0.4
01/05:00am 10.8 8.8 8.6 86 1.1 W 9 15 5 8 1008.8 1008.9 0.4
01/04:30am 10.6 6.6 8.2 85 1.2 WNW 19 30 10 16 1008.4 1008.5 0.4
01/04:00am 11.5 7.5 8.4 81 1.5 WNW 19 26 10 14 1008.2 1008.3 0.4
01/03:30am 11.5 7.5 8.2 80 1.6 WNW 19 24 10 13 1007.6 1007.7 0.4
01/03:00am 11.6 7.5 8.6 82 1.5 WNW 20 30 11 16 1007.3 1007.4 0.4
01/02:30am 11.4 7.5 8.6 83 1.4 WNW 19 26 10 14 1007.1 1007.1 0.4
01/02:00am 11.3 6.8 8.7 84 1.3 WNW 22 32 12 17 1006.7 1006.7 0.4
01/01:30am 11.4 6.9 8.6 83 1.4 NW 22 32 12 17 1006.4 1006.4 0.4
01/01:00am 11.2 6.7 8.4 83 1.4 WNW 22 28 12 15 1006.3 1006.3 0.4
01/12:30am 11.2 6.7 8.4 83 1.4 WNW 22 32 12 17 1006.4 1006.4 0.4
01/12:00am 11.2 5.5 8.2 82 1.5 WNW 28 35 15 19 1006.3 1006.3 0.4
 
Date/Time
EST
Temp
°C
App
Temp
°C
Dew
Point
°C
Rel
Hum
%
Delta-T
°C
Wind Press
QNH
hPa
Press
MSL
hPa
Rain since
9am
mm
Dir  Spd
km/h
Gust
km/h
Spd
kts
Gust
kts
30/11:30pm 11.8 5.4 8.5 80 1.6 WNW 32 41 17 22 1006.1 1006.1 0.4
30/11:00pm 11.8 4.8 8.5 80 1.6 NW 35 44 19 24 1006.2 1006.2 0.4
30/10:30pm 11.7 4.0 8.6 81 1.5 NW 39 52 21 28 1005.9 1005.9 0.4
30/10:00pm 11.7 5.4 8.9 83 1.4 NW 32 41 17 22 1005.8 1005.8 0.4
30/09:30pm 11.7 4.5 9.1 84 1.3 NW 37 50 20 27 1005.8 1005.8 0.4
30/09:00pm 11.5 3.9 9.2 86 1.2 NW 39 44 21 24 1005.7 1005.7 0.4
30/08:30pm 11.4 4.8 8.6 83 1.4 NW 33 44 18 24 1005.6 1005.6 0.4
30/08:00pm 12.1 4.3 8.4 78 1.8 NW 39 46 21 25 1005.5 1005.5 0.2
30/07:30pm 12.0 4.6 8.3 78 1.8 NW 37 46 20 25 1005.4 1005.4 0.2
30/07:00pm 12.2 4.0 8.1 76 2.0 NNW 41 56 22 30 1005.3 1005.3 0.2
30/06:30pm 11.9 4.5 8.4 79 1.7 NW 37 44 20 24 1005.3 1005.3 0.2
30/06:00pm 12.2 5.2 8.3 77 1.9 NW 35 41 19 22 1005.2 1005.2 0.2
30/05:30pm 11.8 3.5 7.7 76 2.0 NNW 41 52 22 28 1004.9 1004.9 0.0
30/05:00pm 12.1 4.2 7.8 75 2.1 NNW 39 48 21 26 1004.6 1004.6 0.0
30/04:30pm 11.6 5.4 7.7 77 1.9 N 30 37 16 20 1004.7 1004.7 0.0
30/04:00pm 11.3 4.0 7.4 77 1.9 N 35 43 19 23 1004.8 1004.8 0.0
30/03:30pm 11.3 3.0 7.8 79 1.7 NNW 41 54 22 29 1005.1 1005.1 0.0
30/03:00pm 11.3 1.5 7.0 75 2.1 NNW 48 57 26 31 1005.2 1005.2 0.0
30/02:30pm 12.0 1.9 7.3 73 2.3 NNW 50 61 27 33 1005.1 1005.1 0.0
30/02:00pm 12.9 3.6 5.8 62 3.4 NNW 44 57 24 31 1005.2 1005.2 0.0
30/01:30pm 12.8 3.5 5.7 62 3.3 N 44 52 24 28 1005.4 1005.4 0.0
30/01:00pm 12.9 3.3 6.3 64 3.1 NNW 46 59 25 32 1006.0 1006.0 0.0
30/12:30pm 13.0 2.9 5.9 62 3.3 NNW 48 59 26 32 1006.6 1006.6 0.0
30/12:00pm 13.4 3.4 6.3 62 3.4 NNW 48 56 26 30 1007.2 1007.3 0.0
30/11:30am 12.6 3.1 6.6 67 2.9 NNW 46 57 25 31 1007.8 1007.9 0.0
30/11:00am 12.7 3.0 5.8 63 3.2 NNW 46 57 25 31 1008.6 1008.7 0.0
30/10:30am 12.5 4.0 6.8 68 2.7 NNW 41 50 22 27 1009.1 1009.2 0.0
30/10:00am 12.8 4.3 6.8 67 2.9 NNW 41 50 22 27 1009.5 1009.6 0.0
30/09:30am 12.5 4.9 7.6 72 2.4 N 37 44 20 24 1009.9 1010.0 0.0
30/09:00am 12.7 3.7 7.2 69 2.7 NNW 44 52 24 28 1010.3 1010.4 0.2
30/08:30am 12.6 4.3 7.7 72 2.4 NNW 41 52 22 28 1010.5 1010.6 0.2
30/08:00am 12.3 4.0 7.8 74 2.2 NNW 41 48 22 26 1010.9 1010.9 0.2
30/07:30am 12.4 3.5 7.5 72 2.4 NNW 44 56 24 30 1011.0 1011.0 0.2
30/07:00am 12.5 4.4 6.8 68 2.7 NW 39 46 21 25 1011.4 1011.4 0.2
30/06:30am 12.4 5.1 7.3 71 2.5 NW 35 43 19 23 1012.1 1012.1 0.2
30/06:00am 12.0 5.5 8.1 77 1.9 NW 32 41 17 22 1012.4 1012.4 0.2
30/05:30am 12.4 6.6 9.4 82 1.5 NW 30 33 16 18 1012.9 1012.9 0.2
30/05:00am 11.7 7.1 9.8 88 1.0 NNW 24 32 13 17 1013.3 1013.3 0.2
30/04:30am 12.1 8.1 10.3 89 0.9 NNW 22 24 12 13 1013.6 1013.6 0.2
30/04:00am 12.3 7.5 10.4 88 1.0 NNW 26 32 14 17 1013.9 1013.9 0.2
30/03:30am 12.2 6.1 10.3 88 1.0 NNW 33 37 18 20 1014.4 1014.4 0.2
30/03:00am 11.9 6.0 10.3 90 0.8 N 32 35 17 19 1015.0 1015.0 0.2
30/02:30am 12.0 6.0 10.2 89 0.9 N 32 37 17 20 1015.5 1015.5 0.0
30/02:00am 11.9 5.8 9.8 87 1.1 N 32 39 17 21 1015.9 1015.9 0.0
30/01:30am 12.9 7.1 9.4 79 1.8 NNW 30 35 16 19 1016.3 1016.3 0.0
30/01:00am 12.8 8.5 9.3 79 1.8 NW 22 32 12 17 1016.9 1016.9 0.0
30/12:30am 12.7 8.4 9.2 79 1.8 NW 22 32 12 17 1017.3 1017.3 0.0
30/12:00am 12.6 8.1 10.0 84 1.3 NW 24 30 13 16 1017.6 1017.6 0.0
 
Date/Time
EST
Temp
°C
App
Temp
°C
Dew
Point
°C
Rel
Hum
%
Delta-T
°C
Wind Press
QNH
hPa
Press
MSL
hPa
Rain since
9am
mm
Dir  Spd
km/h
Gust
km/h
Spd
kts
Gust
kts
29/11:30pm 12.6 8.2 10.3 86 1.2 NW 24 28 13 15 1018.0 1018.0 0.0
29/11:00pm 12.5 8.1 10.4 87 1.1 NW 24 30 13 16 1018.4 1018.4 0.0
29/10:30pm 12.7 8.0 10.8 88 1.0 NW 26 32 14 17 1018.6 1018.6 0.0
29/10:00pm 12.7 8.0 10.6 87 1.1 NW 26 32 14 17 1018.8 1018.8 0.0
29/09:30pm 12.8 8.1 10.7 87 1.1 NW 26 32 14 17 1019.1 1019.1 0.0
29/09:00pm 12.8 9.3 10.9 88 1.0 NW 20 26 11 14 1019.3 1019.3 0.0
29/08:30pm 12.8 8.9 10.9 88 1.0 NW 22 26 12 14 1019.6 1019.6 0.0
29/08:00pm 12.9 9.9 10.8 87 1.1 WNW 17 22 9 12 1020.0 1020.0 0.0
29/07:30pm 12.9 9.3 10.6 86 1.2 NW 20 30 11 16 1020.1 1020.1 0.0
29/07:00pm 12.7 10.0 10.4 86 1.2 NW 15 22 8 12 1020.3 1020.3 0.0
29/06:30pm 12.7 10.4 10.4 86 1.2 WNW 13 17 7 9 1020.4 1020.4 0.0
29/06:00pm 12.6 9.1 10.3 86 1.2 WNW 19 24 10 13 1020.5 1020.5 0.0
29/05:30pm 12.4 8.4 10.3 87 1.1 WNW 22 28 12 15 1020.5 1020.5 0.0
29/05:00pm 12.7 7.5 10.4 86 1.2 WNW 28 33 15 18 1020.5 1020.5 0.0
29/04:30pm 12.9 8.1 10.4 85 1.3 WNW 26 32 14 17 1020.5 1020.5 0.0
29/04:00pm 13.2 8.4 10.4 83 1.4 WNW 26 35 14 19 1020.5 1020.5 0.0
29/03:30pm 13.3 8.4 10.1 81 1.7 WNW 26 33 14 18 1020.5 1020.5 0.0
29/03:00pm 13.9 9.2 10.5 80 1.8 WNW 26 33 14 18 1020.4 1020.4 0.0
29/02:30pm 14.1 9.0 10.5 79 1.9 WNW 28 37 15 20 1020.4 1020.4 0.0
29/02:00pm 14.3 9.2 10.5 78 2.0 WNW 28 37 15 20 1020.5 1020.5 0.0
29/01:30pm 14.5 9.9 10.9 79 1.9 WNW 26 35 14 19 1020.7 1020.7 0.0
29/01:00pm 14.9 10.5 10.3 74 2.4 WNW 24 33 13 18 1021.1 1021.1 0.0
29/12:30pm 15.1 10.5 9.7 70 2.8 WNW 24 37 13 20 1021.2 1021.2 0.0
29/12:00pm 15.0 10.1 10.0 72 2.6 WNW 26 35 14 19 1021.3 1021.3 0.0
29/11:30am 14.7 10.2 9.9 73 2.5 WNW 24 35 13 19 1021.9 1021.9 0.0
29/11:00am 14.9 10.5 10.3 74 2.4 WNW 24 33 13 18 1022.2 1022.2 0.0
29/10:30am 14.5 10.7 9.9 74 2.4 W 20 33 11 18 1022.3 1022.3 0.0
29/10:00am 14.7 10.3 10.3 75 2.3 W 24 35 13 19 1022.4 1022.4 0.0
29/09:30am 14.1 9.2 10.1 77 2.1 W 26 37 14 20 1022.2 1022.2 0.0
29/09:00am 13.3 8.7 9.7 79 1.8 W 24 37 13 20 1022.1 1022.1 0.4
29/08:30am 13.1 8.2 9.9 81 1.6 W 26 37 14 20 1021.8 1021.8 0.4
29/08:00am 13.0 8.1 9.8 81 1.6 W 26 43 14 23 1021.5 1021.5 0.4
29/07:30am 12.9 6.7 9.5 80 1.7 W 32 46 17 25 1021.2 1021.2 0.4
29/07:00am 12.9 8.0 9.9 82 1.5 WNW 26 39 14 21 1020.8 1020.8 0.4
29/06:30am 13.0 7.6 9.6 80 1.7 W 28 46 15 25 1020.6 1020.6 0.4
29/06:00am 13.1 6.9 9.5 79 1.8 W 32 46 17 25 1020.5 1020.5 0.4
29/05:30am 13.1 7.3 9.4 78 1.9 W 30 52 16 28 1020.0 1020.0 0.4
29/05:29am 13.1 7.3 9.5 79 1.8 W 30 52 16 28 1020.0 1020.0 0.4
29/05:00am 12.8 6.7 9.6 81 1.6 W 32 48 17 26 1019.7 1019.7 0.4
29/04:30am 12.3 6.1 9.9 85 1.2 W 33 48 18 26 1019.4 1019.4 0.4
29/04:00am 13.2 5.7 10.7 85 1.3 WNW 41 56 22 30 1019.0 1019.0 0.4
29/03:30am 13.1 6.0 10.8 86 1.2 WNW 39 54 21 29 1019.0 1019.0 0.4
29/03:00am 13.0 5.8 10.7 86 1.2 WNW 39 54 21 29 1019.0 1019.0 0.4
29/02:30am 13.1 6.0 10.8 86 1.2 WNW 39 54 21 29 1019.1 1019.1 0.4
29/02:00am 13.1 5.9 10.5 84 1.3 WNW 39 57 21 31 1019.3 1019.3 0.4
29/01:56am 13.0 5.8 10.4 84 1.3 WNW 39 57 21 31 1019.3 1019.3 0.4
29/01:30am 12.9 5.2 10.1 83 1.4 WNW 41 57 22 31 1019.1 1019.1 0.4
29/01:08am 13.0 5.7 10.2 83 1.4 WNW 39 59 21 32 1019.2 1019.2 0.4
29/01:00am 13.1 5.8 10.3 83 1.4 WNW 39 50 21 27 1019.3 1019.3 0.4
29/12:30am 13.0 5.6 11.2 89 0.9 WNW 41 54 22 29 1019.3 1019.3 0.4
29/12:00am 13.3 6.8 11.7 90 0.9 WNW 37 52 20 28 1019.1 1019.1 0.4
 
Date/Time
EST
Temp
°C
App
Temp
°C
Dew
Point
°C
Rel
Hum
%
Delta-T
°C
Wind Press
QNH
hPa
Press
MSL
hPa
Rain since
9am
mm
Dir  Spd
km/h
Gust
km/h
Spd
kts
Gust
kts
28/11:32pm 13.3 6.0 11.7 90 0.9 WNW 41 65 22 35 1018.8 1018.8 0.4
28/11:30pm 13.3 6.0 11.7 90 0.9 WNW 41 57 22 31 1019.0 1019.0 0.4
28/11:24pm 13.3 6.4 11.7 90 0.9 WNW 39 57 21 31 1019.0 1019.0 0.4
28/11:00pm 13.3 6.8 11.7 90 0.9 WNW 37 48 20 26 1019.4 1019.4 0.4
28/10:30pm 13.3 7.1 11.5 89 1.0 WNW 35 48 19 26 1019.7 1019.7 0.4
28/10:00pm 13.3 7.5 11.5 89 1.0 WNW 33 43 18 23 1019.9 1019.9 0.4
28/09:30pm 13.3 7.1 11.5 89 1.0 WNW 35 48 19 26 1019.6 1019.6 0.4
28/09:00pm 13.3 6.7 11.4 88 1.0 WNW 37 48 20 26 1019.2 1019.2 0.4
28/08:30pm 13.2 6.2 11.3 88 1.0 WNW 39 54 21 29 1019.0 1019.0 0.4
28/08:00pm 13.2 6.2 11.3 88 1.0 WNW 39 50 21 27 1018.9 1018.9 0.4
28/07:30pm 13.1 6.5 11.2 88 1.0 WNW 37 50 20 27 1018.8 1018.8 0.4
28/07:00pm 13.1 6.0 11.0 87 1.1 WNW 39 52 21 28 1018.5 1018.5 0.4
28/06:30pm 13.2 6.6 11.3 88 1.0 WNW 37 48 20 26 1018.5 1018.5 0.4
28/06:00pm 13.2 6.6 11.3 88 1.0 WNW 37 48 20 26 1018.2 1018.2 0.4
28/05:30pm 13.2 6.9 11.1 87 1.1 WNW 35 48 19 26 1018.0 1018.0 0.4
28/05:00pm 13.2 6.9 11.1 87 1.1 WNW 35 48 19 26 1018.0 1018.0 0.4
28/04:30pm 13.4 7.5 11.1 86 1.2 WNW 33 43 18 23 1018.0 1018.0 0.4
28/04:00pm 13.7 8.0 11.2 85 1.3 WNW 32 44 17 24 1017.7 1017.7 0.4
28/03:30pm 14.1 8.2 11.3 83 1.5 WNW 33 43 18 23 1017.6 1017.6 0.4
28/03:00pm 14.2 8.9 11.4 83 1.5 WNW 30 44 16 24 1017.4 1017.4 0.4
28/02:30pm 13.9 8.9 10.9 82 1.6 WNW 28 37 15 20 1017.2 1017.2 0.4
28/02:00pm 14.5 8.6 11.1 80 1.8 WNW 33 48 18 26 1017.1 1017.1 0.4
28/01:30pm 14.1 8.8 11.1 82 1.6 WNW 30 39 16 21 1017.1 1017.1 0.4
28/01:00pm 14.6 9.7 11.2 80 1.8 WNW 28 41 15 22 1017.2 1017.2 0.4
28/12:30pm 14.7 9.5 11.5 81 1.7 WNW 30 43 16 23 1017.3 1017.3 0.4
28/12:00pm 13.8 10.4 11.3 85 1.3 WNW 20 32 11 17 1017.6 1017.6 0.4
28/11:30am 13.6 9.3 10.8 83 1.5 WNW 24 35 13 19 1017.8 1017.8 0.4
28/11:00am 14.4 9.1 11.2 81 1.7 WNW 30 41 16 22 1017.7 1017.7 0.4
28/10:30am 14.3 8.4 11.3 82 1.6 WNW 33 44 18 24 1017.5 1017.5 0.4
28/10:00am 13.8 8.2 11.5 86 1.2 WNW 32 41 17 22 1017.5 1017.5 0.4
28/09:30am 12.6 8.2 10.3 86 1.2 W 24 39 13 21 1017.5 1017.5 0.4
28/09:00am 13.8 7.9 11.0 83 1.5 WNW 33 46 18 25 1017.2 1017.2 0.0
28/08:30am 12.9 7.3 10.1 83 1.4 WNW 30 44 16 24 1016.9 1016.9 0.0
28/08:00am 13.1 8.2 10.1 82 1.5 WNW 26 39 14 21 1016.8 1016.8 0.0
28/07:30am 12.8 7.9 10.0 83 1.4 WNW 26 37 14 20 1016.5 1016.5 0.0
28/07:00am 12.7 7.8 10.1 84 1.3 WNW 26 37 14 20 1016.2 1016.2 0.0
28/06:55am 12.6 7.3 10.0 84 1.3 WNW 28 48 15 26 1016.0 1016.0 0.0
28/06:30am 12.6 6.5 9.8 83 1.4 WNW 32 43 17 23 1015.7 1015.7 0.0
28/06:00am 12.6 6.8 9.6 82 1.5 W 30 46 16 25 1015.4 1015.4 0.0

Other Formats:

Comma delimited format used in spreadsheet applications
http://www.bom.gov.au/fwo/IDT60801/IDT60801.95985.axf

JavaScript Object Notation format (JSON) in row-major order
http://www.bom.gov.au/fwo/IDT60801/IDT60801.95985.json